Time;durP1;ratioP1;P1;durP2;ratioP2;P2;SDS_P1;SDS_P2;PMS_P1;PMS_P2;Temp;Humidity;BMP_temperature;BMP_pressure;BME280_temperature;BME280_humidity;BME280_pressure;Samples;Min_cycle;Max_cycle;Signal;HPM_P1;HPM_P2
2022/09/10 00:02:12;;;;;;;22.93;16.73;;;;;;;15.86;100.00;98811.10;4066614;87;21091;-85
2022/09/10 00:08:22;;;;;;;22.85;16.45;;;;;;;15.90;100.00;98806.30;4191149;83;20994;-85
2022/09/10 00:14:45;;;;;;;26.62;18.90;;;;;;;15.88;100.00;98799.81;4232458;84;21479;-85
2022/09/10 00:27:48;;;;;;;31.07;20.97;;;;;;;15.94;100.00;98784.38;4171363;84;21553;-85
2022/09/10 00:34:00;;;;;;;27.50;20.10;;;;;;;15.92;100.00;98794.26;4191526;84;21928;-85
2022/09/10 00:40:10;;;;;;;29.25;22.42;;;;;;;15.88;100.00;98784.63;4137886;84;21016;-85
2022/09/10 00:46:46;;;;;;;34.35;23.42;;;;;;;15.86;100.00;98779.36;4061623;86;21055;-85
2022/09/10 00:53:22;;;;;;;32.93;23.57;;;;;;;15.84;100.00;98785.88;4158586;84;21165;-85
2022/09/10 00:59:31;;;;;;;38.23;25.68;;;;;;;15.85;100.00;98785.47;4082081;85;21900;-86
2022/09/10 01:05:33;;;;;;;35.88;25.10;;;;;;;15.87;100.00;98791.95;4185016;83;21021;-85
2022/09/10 01:19:23;;;;;;;42.58;29.92;;;;;;;15.90;100.00;98795.27;4028374;88;21099;-85
2022/09/10 01:26:20;;;;;;;42.43;30.37;;;;;;;15.94;100.00;98796.02;3968399;88;21493;-85
2022/09/10 01:40:09;;;;;;;41.55;28.95;;;;;;;16.03;100.00;98792.92;4160747;82;21916;-85
2022/09/10 01:46:44;;;;;;;37.08;25.60;;;;;;;16.09;100.00;98789.87;4330232;82;21038;-83
2022/09/10 02:00:20;;;;;;;33.55;24.23;;;;;;;15.97;100.00;98797.35;4224023;83;20966;-85
2022/09/10 02:06:51;;;;;;;21.65;15.43;;;;;;;15.88;100.00;98791.53;4268648;82;21039;-85
2022/09/10 02:12:53;;;;;;;22.30;14.73;;;;;;;15.86;100.00;98783.50;4265930;82;20991;-86
2022/09/10 02:19:10;;;;;;;20.48;15.20;;;;;;;15.77;100.00;98776.33;4219841;82;21074;-86
2022/09/10 02:25:12;;;;;;;22.60;14.50;;;;;;;15.88;100.00;98775.59;4304361;82;21157;-85
2022/09/10 02:31:17;;;;;;;18.00;13.93;;;;;;;15.96;100.00;98755.73;4287970;82;21058;-84
2022/09/10 02:37:38;;;;;;;24.45;15.72;;;;;;;15.97;100.00;98757.33;4277660;82;21087;-84
2022/09/10 02:43:41;;;;;;;23.45;16.40;;;;;;;15.85;100.00;98747.44;4283688;82;21519;-84
2022/09/10 02:50:06;;;;;;;22.40;17.48;;;;;;;15.85;100.00;98734.41;4260519;82;20996;-84
2022/09/10 02:56:19;;;;;;;29.92;20.02;;;;;;;15.85;100.00;98737.78;4209480;83;21059;-85
2022/09/10 03:02:22;;;;;;;26.17;18.05;;;;;;;15.86;100.00;98737.95;4219366;83;21524;-84
2022/09/10 03:08:23;;;;;;;29.72;20.27;;;;;;;15.69;100.00;98743.30;4197849;83;20985;-84
2022/09/10 03:14:27;;;;;;;27.50;20.25;;;;;;;15.76;100.00;98742.42;4219701;83;21052;-84
2022/09/10 03:20:31;;;;;;;29.25;22.37;;;;;;;15.84;100.00;98744.48;4190102;83;21102;-84
2022/09/10 03:26:33;;;;;;;32.98;21.70;;;;;;;15.86;100.00;98747.61;4211736;83;20977;-84
2022/09/10 03:32:38;;;;;;;29.40;20.77;;;;;;;15.78;100.00;98748.91;4212881;83;21547;-83
2022/09/10 03:38:40;;;;;;;25.90;19.53;;;;;;;15.71;100.00;98748.40;4218141;83;21087;-83
2022/09/10 03:44:42;;;;;;;26.93;18.07;;;;;;;15.71;100.00;98740.73;4213469;83;21500;-86
2022/09/10 03:50:45;;;;;;;27.17;19.73;;;;;;;15.74;100.00;98735.15;4219068;83;21059;-86
2022/09/10 03:56:47;;;;;;;30.08;20.57;;;;;;;15.71;100.00;98733.22;4205407;83;21095;-85
2022/09/10 04:02:51;;;;;;;28.65;20.20;;;;;;;15.56;100.00;98735.41;4216661;83;21073;-85
2022/09/10 04:08:54;;;;;;;30.60;21.12;;;;;;;15.53;100.00;98727.93;4217077;83;21024;-86
2022/09/10 04:15:00;;;;;;;29.52;21.02;;;;;;;15.53;100.00;98721.66;4179847;84;21028;-85
2022/09/10 04:21:03;;;;;;;26.97;19.65;;;;;;;15.53;100.00;98733.45;4214664;83;21020;-84
2022/09/10 04:27:05;;;;;;;26.77;20.25;;;;;;;15.57;100.00;98725.92;4221965;83;20963;-84
2022/09/10 04:33:07;;;;;;;23.47;17.67;;;;;;;15.59;100.00;98729.64;4217201;83;21147;-84
2022/09/10 04:39:10;;;;;;;28.47;20.50;;;;;;;15.62;100.00;98719.16;4213262;83;21543;-86
2022/09/10 04:45:18;;;;;;;24.20;19.12;;;;;;;15.63;100.00;98720.71;4214622;83;20993;-86
2022/09/10 04:51:20;;;;;;;24.40;18.32;;;;;;;15.62;100.00;98715.81;4220037;83;21011;-85
2022/09/10 04:57:38;;;;;;;24.52;17.00;;;;;;;15.63;100.00;98713.23;4216346;83;21147;-84
2022/09/10 05:03:40;;;;;;;28.47;21.43;;;;;;;15.61;100.00;98707.33;4216168;83;21073;-84
2022/09/10 05:09:42;;;;;;;24.72;18.95;;;;;;;15.71;100.00;98710.38;4223113;83;21042;-86
2022/09/10 05:15:46;;;;;;;26.97;19.70;;;;;;;15.74;100.00;98706.80;4217302;83;21028;-84
2022/09/10 05:21:50;;;;;;;27.25;21.77;;;;;;;15.69;100.00;98697.77;4216798;83;21119;-85
2022/09/10 05:27:54;;;;;;;25.08;18.98;;;;;;;15.75;100.00;98697.30;4204462;83;21004;-84
2022/09/10 05:34:00;;;;;;;29.05;23.60;;;;;;;15.76;100.00;98701.03;4214458;83;21111;-84
2022/09/10 05:40:06;;;;;;;35.83;26.55;;;;;;;15.81;100.00;98696.42;4222222;83;20981;-84
2022/09/10 05:46:09;;;;;;;34.70;26.60;;;;;;;15.83;100.00;98698.77;4214574;83;21076;-84
2022/09/10 05:52:11;;;;;;;34.15;26.10;;;;;;;15.82;100.00;98695.84;4200562;83;21027;-85
2022/09/10 05:58:15;;;;;;;34.88;25.05;;;;;;;15.84;100.00;98698.94;4229503;83;21024;-85
2022/09/10 06:04:18;;;;;;;31.23;23.62;;;;;;;15.90;100.00;98695.30;4227221;83;20976;-85
2022/09/10 06:10:21;;;;;;;34.23;24.50;;;;;;;15.98;100.00;98694.00;4210151;83;21023;-84
2022/09/10 06:16:26;;;;;;;30.00;23.38;;;;;;;16.05;100.00;98684.23;4225230;83;21043;-85
2022/09/10 06:23:16;;;;;;;28.60;22.55;;;;;;;16.09;100.00;98678.05;4112656;84;21095;-84
2022/09/10 06:29:21;;;;;;;25.10;18.90;;;;;;;16.14;100.00;98683.10;4059852;87;21414;-84
2022/09/10 06:35:24;;;;;;;20.90;16.87;;;;;;;16.15;100.00;98694.31;4035971;87;21115;-85
2022/09/10 06:41:29;;;;;;;19.17;15.98;;;;;;;16.07;100.00;98685.96;4052289;87;21048;-84
2022/09/10 06:47:35;;;;;;;19.00;15.43;;;;;;;16.06;100.00;98696.05;4075883;87;21071;-84
2022/09/10 06:53:40;;;;;;;18.02;15.05;;;;;;;16.04;100.00;98699.81;4022581;86;21599;-87
2022/09/10 06:59:46;;;;;;;17.92;12.75;;;;;;;16.04;100.00;98699.81;4092931;86;21111;-85
2022/09/10 07:05:54;;;;;;;13.55;12.13;;;;;;;16.02;100.00;98712.66;4083298;86;21122;-85
2022/09/10 07:11:59;;;;;;;12.60;11.22;;;;;;;16.00;100.00;98703.24;4082914;85;21038;-85
2022/09/10 07:18:03;;;;;;;11.78;10.35;;;;;;;16.00;100.00;98706.00;4087896;85;21088;-85
2022/09/10 07:24:05;;;;;;;13.93;10.25;;;;;;;16.04;100.00;98705.34;3999253;88;21065;-85
2022/09/10 07:30:10;;;;;;;11.05;9.03;;;;;;;16.08;100.00;98704.70;4065088;86;21856;-84
2022/09/10 07:36:11;;;;;;;9.58;7.72;;;;;;;16.07;100.00;98713.58;4038734;86;21056;-84
2022/09/10 07:42:13;;;;;;;9.80;7.30;;;;;;;16.06;100.00;98712.02;4003594;87;21095;-85
2022/09/10 07:48:17;;;;;;;9.33;6.67;;;;;;;16.00;100.00;98715.08;4064307;86;21073;-87
2022/09/10 07:54:19;;;;;;;10.18;7.70;;;;;;;16.04;100.00;98719.14;4037597;87;21031;-87
2022/09/10 08:00:23;;;;;;;10.28;7.33;;;;;;;16.08;100.00;98715.16;4027597;87;21167;-86
2022/09/10 08:06:26;;;;;;;11.50;8.20;;;;;;;16.14;100.00;98720.38;4147288;84;20990;-84
2022/09/10 08:12:27;;;;;;;8.28;6.87;;;;;;;16.20;100.00;98718.70;4146368;84;21039;-85
2022/09/10 08:18:28;;;;;;;11.15;7.70;;;;;;;16.22;100.00;98714.93;4139946;84;21026;-86
2022/09/10 08:24:31;;;;;;;8.63;5.42;;;;;;;16.27;100.00;98721.34;4149182;84;21067;-86
2022/09/10 08:30:33;;;;;;;6.90;5.33;;;;;;;16.40;100.00;98722.91;4122642;84;21517;-85
2022/09/10 08:36:34;;;;;;;7.22;6.00;;;;;;;16.53;100.00;98720.56;4144822;84;21023;-86
2022/09/10 08:42:48;;;;;;;5.35;4.28;;;;;;;16.69;100.00;98721.27;4131875;84;22328;-86
2022/09/10 08:49:15;;;;;;;7.08;5.00;;;;;;;16.75;100.00;98720.96;4142327;83;21399;-86
2022/09/10 08:55:23;;;;;;;6.72;4.90;;;;;;;16.74;100.00;98714.64;4151040;84;21029;-86
2022/09/10 09:01:49;;;;;;;7.55;5.12;;;;;;;16.78;100.00;98712.61;4143227;84;21097;-86
2022/09/10 09:07:52;;;;;;;8.98;5.85;;;;;;;16.87;100.00;98718.36;4157438;84;20976;-86
2022/09/10 09:14:44;;;;;;;7.78;5.70;;;;;;;16.91;100.00;98716.92;4146030;84;21059;-86
2022/09/10 09:20:53;;;;;;;8.10;6.55;;;;;;;16.86;100.00;98718.19;4128314;84;21066;-86
2022/09/10 09:27:12;;;;;;;9.80;6.10;;;;;;;16.84;100.00;98713.68;4109251;85;21024;-85
2022/09/10 09:33:22;;;;;;;5.03;4.53;;;;;;;16.95;100.00;98716.24;4099973;85;21022;-85
2022/09/10 09:39:39;;;;;;;5.22;4.35;;;;;;;17.05;100.00;98720.80;4089035;85;21533;-85
2022/09/10 09:45:46;;;;;;;7.13;3.77;;;;;;;17.10;100.00;98712.02;4095407;85;21042;-85
2022/09/10 09:51:50;;;;;;;5.58;4.28;;;;;;;17.19;100.00;98708.84;4104213;85;22083;-85
2022/09/10 09:58:03;;;;;;;4.20;3.50;;;;;;;17.27;100.00;98701.20;4102357;85;21049;-85
2022/09/10 10:04:23;;;;;;;8.28;4.47;;;;;;;17.35;100.00;98707.36;4104101;85;21035;-84
2022/09/10 10:10:31;;;;;;;5.05;2.70;;;;;;;17.39;100.00;98704.70;4102812;85;20980;-84
2022/09/10 10:16:55;;;;;;;3.77;2.60;;;;;;;17.35;100.00;98702.63;4106505;85;21579;-85
2022/09/10 10:22:58;;;;;;;2.85;2.62;;;;;;;17.29;100.00;98689.71;4108358;85;21095;-84
2022/09/10 10:29:05;;;;;;;3.77;2.50;;;;;;;17.31;100.00;98689.45;4125007;85;21845;-85
2022/09/10 10:35:34;;;;;;;4.60;2.58;;;;;;;17.47;100.00;98682.63;4107694;85;21030;-85
2022/09/10 10:42:14;;;;;;;3.22;2.30;;;;;;;17.65;100.00;98689.92;4111797;85;21121;-84
2022/09/10 10:48:44;;;;;;;3.15;2.30;;;;;;;17.61;100.00;98692.00;4039726;85;21154;-84
2022/09/10 10:55:06;;;;;;;4.47;2.40;;;;;;;17.57;100.00;98691.91;4114985;84;21956;-85
2022/09/10 11:01:20;;;;;;;5.72;2.00;;;;;;;17.62;100.00;98685.25;4113695;85;21097;-84
2022/09/10 11:07:30;;;;;;;1.92;1.77;;;;;;;17.60;100.00;98687.69;4110293;85;21461;-84
2022/09/10 11:13:40;;;;;;;2.65;2.00;;;;;;;17.67;100.00;98681.98;4097088;85;21541;-85
2022/09/10 11:20:12;;;;;;;7.00;1.82;;;;;;;17.79;100.00;98679.92;4113827;85;21086;-84
2022/09/10 11:26:26;;;;;;;4.65;2.17;;;;;;;18.04;100.00;98681.50;4102508;85;21514;-84
2022/09/10 11:33:08;;;;;;;3.60;1.47;;;;;;;18.10;100.00;98675.62;4110385;85;21086;-85
2022/09/10 11:39:33;;;;;;;2.62;1.95;;;;;;;18.06;100.00;98679.09;4100017;85;21031;-84
2022/09/10 11:45:53;;;;;;;2.47;1.42;;;;;;;18.06;100.00;98663.86;4107035;85;21051;-85
2022/09/10 11:52:00;;;;;;;6.45;1.95;;;;;;;18.19;100.00;98665.33;4109386;85;21058;-85
2022/09/10 11:58:11;;;;;;;3.02;1.62;;;;;;;18.27;100.00;98657.02;4105720;85;22058;-86
2022/09/10 12:04:44;;;;;;;3.55;1.80;;;;;;;18.48;100.00;98655.89;4096567;86;21037;-83
2022/09/10 12:11:19;;;;;;;2.98;2.02;;;;;;;18.62;100.00;98651.99;4137493;85;21087;-86
2022/09/10 12:17:33;;;;;;;3.17;1.95;;;;;;;18.61;100.00;98637.95;4004917;87;21037;-84
2022/09/10 12:23:48;;;;;;;3.47;2.77;;;;;;;18.53;100.00;98629.05;4082478;86;21763;-85
2022/09/10 12:29:49;;;;;;;6.00;2.98;;;;;;;18.71;100.00;98618.24;4064683;85;21075;-85
2022/09/10 12:35:52;;;;;;;4.70;2.45;;;;;;;19.05;100.00;98608.59;4071034;85;21648;-85
2022/09/10 12:42:22;;;;;;;5.33;2.70;;;;;;;19.03;100.00;98604.87;4083019;86;21050;-85
2022/09/10 12:48:25;;;;;;;3.95;2.90;;;;;;;18.85;99.90;98602.44;3993866;87;21067;-86
2022/09/10 12:54:51;;;;;;;5.75;3.15;;;;;;;18.73;100.00;98585.91;4030057;87;21021;-85
2022/09/10 13:01:42;;;;;;;5.87;2.65;;;;;;;18.88;99.91;98587.69;4085486;87;21048;-86
2022/09/10 13:07:48;;;;;;;3.58;2.65;;;;;;;18.81;98.48;98580.34;4088070;87;21003;-85
2022/09/10 13:13:59;;;;;;;3.92;3.33;;;;;;;18.69;98.49;98579.70;4084862;86;21144;-87
2022/09/10 13:20:28;;;;;;;4.83;3.12;;;;;;;18.65;98.60;98583.20;4084744;85;21008;-85
2022/09/10 13:26:37;;;;;;;3.80;3.25;;;;;;;18.61;97.38;98568.05;4097895;86;21908;-85
2022/09/10 13:32:52;;;;;;;3.10;2.80;;;;;;;18.73;97.26;98568.52;4067905;86;20995;-86
2022/09/10 13:39:34;;;;;;;4.35;2.92;;;;;;;18.84;97.66;98562.83;4093012;86;21060;-85
2022/09/10 13:45:54;;;;;;;3.52;3.00;;;;;;;18.95;97.25;98558.38;4084016;85;21008;-86
2022/09/10 13:52:03;;;;;;;5.15;3.52;;;;;;;18.90;95.77;98563.08;4085635;85;21034;-85
2022/09/10 13:58:17;;;;;;;4.53;3.25;;;;;;;18.73;94.82;98562.98;4081445;86;21458;-85
2022/09/10 14:04:36;;;;;;;4.83;2.90;;;;;;;18.65;95.03;98560.39;4088512;85;21085;-86
2022/09/10 14:10:54;;;;;;;4.42;3.35;;;;;;;18.66;95.64;98560.58;4094185;85;21038;-85
2022/09/10 14:17:20;;;;;;;3.77;2.98;;;;;;;18.71;95.74;98560.02;4106953;85;21039;-86
2022/09/10 14:23:21;;;;;;;5.85;3.72;;;;;;;18.60;94.55;98555.38;4096041;87;21035;-85
2022/09/10 14:29:24;;;;;;;7.00;3.58;;;;;;;18.49;94.21;98548.59;4067821;86;20998;-86
2022/09/10 14:35:45;;;;;;;4.78;3.42;;;;;;;18.40;93.77;98542.28;4078431;86;21135;-85
2022/09/10 14:41:48;;;;;;;4.67;3.37;;;;;;;18.46;93.62;98539.77;4055727;86;21074;-85
2022/09/10 14:47:53;;;;;;;4.55;3.12;;;;;;;18.65;94.05;98541.62;4143496;84;21547;-85
2022/09/10 14:54:00;;;;;;;4.20;3.25;;;;;;;18.83;92.66;98536.33;4148546;84;21974;-85
2022/09/10 15:00:02;;;;;;;6.30;3.70;;;;;;;18.92;92.71;98536.45;4154060;84;20988;-86
2022/09/10 15:06:05;;;;;;;5.42;3.90;;;;;;;18.87;91.80;98536.98;4147581;84;21043;-86
2022/09/10 15:12:23;;;;;;;5.50;4.05;;;;;;;18.82;91.90;98538.94;4153684;84;21004;-85
2022/09/10 15:18:27;;;;;;;4.12;3.58;;;;;;;18.80;91.98;98542.75;4146683;83;21117;-86
2022/09/10 15:24:30;;;;;;;5.78;4.05;;;;;;;18.76;92.00;98538.53;4133982;84;21765;-85
2022/09/10 15:30:34;;;;;;;5.67;4.15;;;;;;;18.77;92.09;98538.69;4113367;84;21048;-85
2022/09/10 15:36:44;;;;;;;6.40;4.08;;;;;;;18.78;92.06;98534.09;4121430;85;21064;-85
2022/09/10 15:42:46;;;;;;;8.38;3.87;;;;;;;18.76;91.90;98540.70;4075604;84;21020;-86
2022/09/10 15:48:52;;;;;;;4.62;2.98;;;;;;;18.83;91.93;98541.88;4154226;85;21066;-84
2022/09/10 15:54:53;;;;;;;3.65;2.80;;;;;;;18.82;92.40;98543.10;4138799;85;21641;-85
2022/09/10 16:01:12;;;;;;;3.58;3.05;;;;;;;18.68;92.89;98548.42;4131772;84;21651;-85
2022/09/10 16:07:13;;;;;;;4.50;3.25;;;;;;;18.59;93.25;98553.05;4135750;84;21032;-85
2022/09/10 16:13:15;;;;;;;5.17;3.90;;;;;;;18.53;93.19;98569.45;4143686;84;21543;-86
2022/09/10 16:19:16;;;;;;;4.03;3.62;;;;;;;18.35;93.04;98564.95;4157004;83;21016;-85
2022/09/10 16:25:19;;;;;;;5.12;3.33;;;;;;;18.25;93.70;98561.09;4100859;84;21648;-85
2022/09/10 16:31:25;;;;;;;5.33;3.15;;;;;;;18.14;94.01;98562.75;4091086;85;21055;-86
2022/09/10 16:37:31;;;;;;;4.00;3.15;;;;;;;17.97;94.27;98565.38;4103743;85;21072;-86
2022/09/10 16:43:36;;;;;;;7.23;3.17;;;;;;;17.87;94.96;98564.27;3984190;84;9999781;-86
2022/09/10 16:49:40;;;;;;;5.33;3.87;;;;;;;17.58;95.28;98533.72;4096419;86;21709;-86
2022/09/10 16:55:46;;;;;;;5.28;3.62;;;;;;;17.61;95.69;98552.23;4109910;86;21045;-86
2022/09/10 17:01:50;;;;;;;8.60;3.70;;;;;;;17.46;96.18;98541.93;4099133;85;21034;-85
2022/09/10 17:07:52;;;;;;;5.83;3.92;;;;;;;17.43;96.55;98536.61;4090223;85;21872;-85
2022/09/10 17:14:00;;;;;;;5.22;4.62;;;;;;;17.30;96.89;98540.49;4103638;85;21098;-85
2022/09/10 17:20:06;;;;;;;6.20;4.12;;;;;;;17.06;97.21;98544.78;4139684;86;21569;-86
2022/09/10 17:26:11;;;;;;;9.63;4.75;;;;;;;16.92;97.82;98550.61;4120296;85;20999;-86
2022/09/10 17:32:13;;;;;;;8.18;5.12;;;;;;;16.94;98.59;98535.73;4177145;85;22028;-86
2022/09/10 17:38:18;;;;;;;13.28;9.50;;;;;;;16.98;98.86;98535.08;4122618;85;21036;-85
2022/09/10 17:44:21;;;;;;;13.13;10.07;;;;;;;16.89;98.80;98542.39;4126735;85;21034;-85
2022/09/10 17:50:29;;;;;;;18.07;8.33;;;;;;;16.81;99.09;98546.50;4136063;85;21502;-86
2022/09/10 17:56:40;;;;;;;15.38;8.80;;;;;;;16.70;99.28;98558.38;4188191;85;21003;-85
2022/09/10 18:02:45;;;;;;;5.08;2.60;;;;;;;16.45;99.15;98582.36;4125512;85;21081;-85
2022/09/10 18:08:47;;;;;;;2.08;1.00;;;;;;;16.18;97.32;98600.97;4128828;84;20994;-85
2022/09/10 18:14:50;;;;;;;1.20;1.10;;;;;;;15.87;95.46;98591.25;4127161;85;21527;-85
2022/09/10 18:20:59;;;;;;;2.33;1.22;;;;;;;15.69;95.10;98592.15;4124948;85;21057;-83
2022/09/10 18:27:03;;;;;;;4.92;2.83;;;;;;;15.42;94.91;98595.51;4147337;85;21062;-84
2022/09/10 18:33:31;;;;;;;2.80;2.12;;;;;;;15.27;95.35;98594.10;4118306;85;20975;-84
2022/09/10 18:39:34;;;;;;;1.72;1.55;;;;;;;15.22;95.62;98596.73;4153026;85;20986;-85
2022/09/10 18:45:36;;;;;;;4.60;2.35;;;;;;;15.18;95.87;98593.84;4114852;85;21043;-85
2022/09/10 18:51:40;;;;;;;6.42;2.30;;;;;;;15.12;96.35;98590.78;4106299;84;21528;-85
2022/09/10 18:57:41;;;;;;;3.00;1.40;;;;;;;15.02;96.56;98582.63;4149024;85;21042;-84
2022/09/10 19:03:48;;;;;;;2.02;1.47;;;;;;;14.99;96.17;98589.76;4159963;84;21003;-85
2022/09/10 19:09:54;;;;;;;5.97;2.10;;;;;;;14.80;95.96;98582.73;4153493;85;21065;-84
2022/09/10 19:16:00;;;;;;;2.58;1.87;;;;;;;14.52;96.37;98576.19;4090909;86;21064;-85
2022/09/10 19:22:09;;;;;;;4.22;2.40;;;;;;;14.59;96.60;98571.38;4112748;85;21042;-84
2022/09/10 19:28:13;;;;;;;6.35;2.30;;;;;;;14.50;97.14;98573.05;4117349;86;20975;-84
2022/09/10 19:34:18;;;;;;;5.55;2.00;;;;;;;14.47;97.69;98572.50;4097557;84;21029;-84
2022/09/10 19:40:21;;;;;;;5.37;1.90;;;;;;;14.45;97.44;98571.53;4141576;85;21006;-84
2022/09/10 19:46:27;;;;;;;5.12;1.87;;;;;;;14.39;97.99;98571.80;4113391;85;20998;-84
2022/09/10 19:52:31;;;;;;;6.53;2.35;;;;;;;14.36;97.71;98579.48;4125494;85;21061;-84
2022/09/10 19:58:35;;;;;;;2.40;1.98;;;;;;;14.26;97.52;98577.64;4134456;85;21010;-84
2022/09/10 20:04:37;;;;;;;4.33;2.75;;;;;;;14.20;97.71;98579.24;4112261;85;21121;-84
2022/09/10 20:24:33;;;;;;;6.85;2.90;;;;;;;13.99;98.81;98582.97;4112310;85;21587;-84
2022/09/10 20:30:35;;;;;;;8.33;5.67;;;;;;;14.04;99.72;98581.75;4132527;84;21026;-84
2022/09/10 20:36:37;;;;;;;16.35;7.28;;;;;;;14.09;100.00;98578.56;4189996;85;20996;-84
2022/09/10 20:42:39;;;;;;;11.20;6.03;;;;;;;14.04;100.00;98561.90;4193673;85;21069;-84
2022/09/10 20:48:43;;;;;;;8.85;5.87;;;;;;;14.14;100.00;98567.12;4144967;85;21095;-84
2022/09/10 20:54:46;;;;;;;10.20;5.85;;;;;;;14.20;100.00;98577.25;4128236;85;21018;-84
2022/09/10 21:00:48;;;;;;;9.30;5.70;;;;;;;14.15;100.00;98583.81;4127724;85;21027;-84
2022/09/10 21:07:13;;;;;;;12.03;6.03;;;;;;;14.16;100.00;98582.61;4193650;85;21016;-83
2022/09/10 21:13:15;;;;;;;7.92;5.60;;;;;;;14.19;100.00;98581.79;4126534;84;20978;-83
2022/09/10 21:26:45;;;;;;;;;;;;;;;14.12;100.00;98581.29;4145263;84;21002;-85
2022/09/10 21:32:46;;;;;;;4.28;3.83;;;;;;;14.06;100.00;98579.38;4162513;84;20117;-83
2022/09/10 21:38:54;;;;;;;8.15;3.20;;;;;;;14.03;100.00;98586.46;4147738;84;21021;-83
2022/09/10 21:44:57;;;;;;;5.50;2.92;;;;;;;14.03;100.00;98593.95;4215059;84;21070;-83
2022/09/10 21:51:06;;;;;;;4.70;3.02;;;;;;;14.00;100.00;98594.77;4215269;83;21036;-83
2022/09/10 21:57:10;;;;;;;6.25;3.15;;;;;;;13.75;100.00;98601.08;4182178;84;21034;-83
2022/09/10 22:03:15;;;;;;;4.45;3.45;;;;;;;13.73;100.00;98600.08;4130006;85;22016;-83
2022/09/10 22:09:16;;;;;;;8.88;3.33;;;;;;;13.77;100.00;98602.81;4095365;84;21884;-83
2022/09/10 22:15:17;;;;;;;4.45;3.22;;;;;;;13.75;100.00;98604.59;4206786;84;21046;-83
2022/09/10 22:21:22;;;;;;;9.80;3.83;;;;;;;13.89;100.00;98602.34;4143005;83;21033;-83
2022/09/10 22:27:23;;;;;;;9.73;3.98;;;;;;;13.95;100.00;98590.47;4162532;84;21570;-83
2022/09/10 22:33:25;;;;;;;8.13;4.50;;;;;;;13.91;100.00;98586.97;4131845;84;21116;-83
2022/09/10 22:39:28;;;;;;;6.25;3.67;;;;;;;13.77;100.00;98593.97;4134285;85;21031;-82
2022/09/10 22:45:31;;;;;;;6.65;3.95;;;;;;;13.66;100.00;98591.89;4141461;85;21023;-83
2022/09/10 22:51:37;;;;;;;6.53;4.00;;;;;;;13.69;100.00;98584.80;4138403;84;21075;-83
2022/09/10 22:57:40;;;;;;;7.47;4.28;;;;;;;13.64;100.00;98589.38;4129947;83;22239;-83
2022/09/10 23:03:43;;;;;;;10.85;3.60;;;;;;;13.59;100.00;98589.18;4166679;85;21543;-83
2022/09/10 23:09:44;;;;;;;7.35;4.00;;;;;;;13.49;100.00;98587.31;4132391;83;20978;-84
2022/09/10 23:15:46;;;;;;;8.10;3.83;;;;;;;13.50;100.00;98583.98;4140166;85;21548;-83
2022/09/10 23:21:51;;;;;;;6.40;3.75;;;;;;;13.53;100.00;98586.68;4157623;85;20984;-83
2022/09/10 23:27:53;;;;;;;7.10;4.42;;;;;;;13.36;100.00;98592.32;4122399;84;21031;-83
2022/09/10 23:33:58;;;;;;;8.05;4.75;;;;;;;13.17;100.00;98590.84;4144803;85;21430;-83
2022/09/10 23:40:00;;;;;;;6.75;4.05;;;;;;;13.11;100.00;98591.08;4115657;85;21622;-83
2022/09/10 23:46:02;;;;;;;9.08;4.55;;;;;;;13.16;100.00;98589.28;4102315;85;21091;-83
2022/09/10 23:52:03;;;;;;;12.65;5.28;;;;;;;13.16;100.00;98587.91;4110129;85;21027;-83
2022/09/10 23:58:05;;;;;;;8.03;4.80;;;;;;;13.12;100.00;98589.12;4122568;85;21118;-82
